Kedon, Russia
Current Conditions -  °F | °C
As of 11:00 PM on Thursday 23 Oct 2014 (Local Time) from UHMM Reporting Station
Overcast Overcast  
Wind Chill:   Ceiling: 10000
Heat Index:   Visibility: 6mi
Dew Point:   Wind: 0mph
Humidity: 85%   Direction: NA
Pressure: 29.38"   Gusts: NA
Location:  64°N, 158.92°E
Report Text: UHMM 231200Z 00000MPS 9999 OVC100 M13/M15 Q0995 RMK QFE731
Loading
Personal Weather Stations






























Interactive Weather Map
Tropical Storm Tracking
New forecast layout! Learn more

10-Day Weather Forecast

Advertisements
Track Severe Weather on mobile